Flugplatz Mannheim-City

Bericht für EDFM

vom 23.08. um 12:20 UTC

Wind 8 kt aus 40°

Sichtweite 10 km oder mehr

gute Sicht, keine Wolken < 5000 ft, keine CB, keine Wettererscheinungen (CAVOK)

Temperatur 27.0°C

Taupunkt 9.0°C

Luftfeuchtigkeit 32%

Luftdruck 1024 hPa

EDFM 231220Z 04008KT CAVOK 27/09 Q1024

Prognose für EDFM

vom 23.08. um 00:00 UTC

Zwischen 00:00 UTC und 00:00 UTC

Wind 5 kt aus 60°

Sichtweite 10 km oder mehr

keine signifikanten Wettererscheinungen

keine Wolken

TAF EDFM 231100Z 2312/2321 06005KT CAVOK
Impressum